sensor_id;sensor_type;location;lat;lon;timestamp;pressure;altitude;pressure_sealevel;temperature;humidity
50123;BME280;36021;48.670;6.184;2023-02-21T00:01:53;99659.25;;;8.01;100.00
50123;BME280;36021;48.670;6.184;2023-02-21T00:04:37;99654.28;;;7.98;100.00
50123;BME280;36021;48.670;6.184;2023-02-21T00:07:21;99643.22;;;7.88;100.00
50123;BME280;36021;48.670;6.184;2023-02-21T00:10:06;99646.22;;;7.86;100.00
50123;BME280;36021;48.670;6.184;2023-02-21T00:12:51;99654.53;;;7.97;100.00
50123;BME280;36021;48.670;6.184;2023-02-21T00:15:37;99649.97;;;8.07;100.00
50123;BME280;36021;48.670;6.184;2023-02-21T00:18:22;99648.06;;;8.13;100.00
50123;BME280;36021;48.670;6.184;2023-02-21T00:21:06;99641.75;;;8.12;100.00
50123;BME280;36021;48.670;6.184;2023-02-21T00:23:50;99646.72;;;8.15;100.00
50123;BME280;36021;48.670;6.184;2023-02-21T00:26:35;99643.59;;;8.02;100.00
50123;BME280;36021;48.670;6.184;2023-02-21T00:29:18;99647.56;;;7.84;100.00
50123;BME280;36021;48.670;6.184;2023-02-21T00:32:04;99651.59;;;7.71;100.00
50123;BME280;36021;48.670;6.184;2023-02-21T00:34:49;99646.09;;;7.71;100.00
50123;BME280;36021;48.670;6.184;2023-02-21T00:37:34;99642.03;;;7.79;100.00
50123;BME280;36021;48.670;6.184;2023-02-21T00:40:18;99636.31;;;7.85;100.00
50123;BME280;36021;48.670;6.184;2023-02-21T00:43:02;99638.09;;;7.65;100.00
50123;BME280;36021;48.670;6.184;2023-02-21T00:45:46;99637.88;;;7.45;100.00
50123;BME280;36021;48.670;6.184;2023-02-21T00:48:30;99637.38;;;7.21;100.00
50123;BME280;36021;48.670;6.184;2023-02-21T00:51:15;99637.69;;;7.24;100.00
50123;BME280;36021;48.670;6.184;2023-02-21T00:53:59;99627.97;;;7.39;100.00
50123;BME280;36021;48.670;6.184;2023-02-21T00:56:45;99624.22;;;7.50;100.00
50123;BME280;36021;48.670;6.184;2023-02-21T00:59:29;99624.78;;;7.52;100.00
50123;BME280;36021;48.670;6.184;2023-02-21T01:02:14;99615.22;;;7.54;100.00
50123;BME280;36021;48.670;6.184;2023-02-21T01:04:58;99627.63;;;7.62;100.00
50123;BME280;36021;48.670;6.184;2023-02-21T01:07:42;99620.78;;;7.64;100.00
50123;BME280;36021;48.670;6.184;2023-02-21T01:10:26;99624.41;;;7.70;100.00
50123;BME280;36021;48.670;6.184;2023-02-21T01:13:11;99617.28;;;7.69;100.00
50123;BME280;36021;48.670;6.184;2023-02-21T01:15:57;99613.91;;;7.62;100.00
50123;BME280;36021;48.670;6.184;2023-02-21T01:18:41;99613.66;;;7.63;100.00
50123;BME280;36021;48.670;6.184;2023-02-21T01:21:25;99610.69;;;7.70;100.00
50123;BME280;36021;48.670;6.184;2023-02-21T01:24:12;99604.41;;;7.74;100.00
50123;BME280;36021;48.670;6.184;2023-02-21T01:26:57;99603.41;;;7.54;100.00
50123;BME280;36021;48.670;6.184;2023-02-21T01:29:41;99611.59;;;7.49;100.00
50123;BME280;36021;48.670;6.184;2023-02-21T01:32:26;99604.78;;;7.24;100.00
50123;BME280;36021;48.670;6.184;2023-02-21T01:35:12;99598.13;;;7.15;100.00
50123;BME280;36021;48.670;6.184;2023-02-21T01:37:56;99597.25;;;6.88;100.00
50123;BME280;36021;48.670;6.184;2023-02-21T01:40:40;99588.28;;;6.71;100.00
50123;BME280;36021;48.670;6.184;2023-02-21T01:43:25;99584.06;;;6.85;100.00
50123;BME280;36021;48.670;6.184;2023-02-21T01:46:11;99580.34;;;6.69;100.00
50123;BME280;36021;48.670;6.184;2023-02-21T01:48:56;99585.00;;;6.69;100.00
50123;BME280;36021;48.670;6.184;2023-02-21T01:51:41;99579.84;;;6.51;100.00
50123;BME280;36021;48.670;6.184;2023-02-21T01:54:28;99581.94;;;6.44;100.00
50123;BME280;36021;48.670;6.184;2023-02-21T01:57:17;99582.88;;;6.33;100.00
50123;BME280;36021;48.670;6.184;2023-02-21T02:00:04;99585.13;;;6.57;100.00
50123;BME280;36021;48.670;6.184;2023-02-21T02:02:59;99582.81;;;6.71;100.00
50123;BME280;36021;48.670;6.184;2023-02-21T02:05:45;99579.13;;;6.82;100.00
50123;BME280;36021;48.670;6.184;2023-02-21T02:08:31;99578.09;;;6.88;100.00
50123;BME280;36021;48.670;6.184;2023-02-21T02:11:41;99576.00;;;6.73;100.00
50123;BME280;36021;48.670;6.184;2023-02-21T02:17:21;99570.47;;;6.47;100.00
50123;BME280;36021;48.670;6.184;2023-02-21T02:27:33;99570.13;;;6.65;100.00
50123;BME280;36021;48.670;6.184;2023-02-21T02:35:28;99565.25;;;6.67;100.00
50123;BME280;36021;48.670;6.184;2023-02-21T02:43:15;99566.78;;;6.14;100.00
50123;BME280;36021;48.670;6.184;2023-02-21T02:46:03;99563.91;;;5.88;100.00
50123;BME280;36021;48.670;6.184;2023-02-21T02:48:32;99563.19;;;5.92;100.00
50123;BME280;36021;48.670;6.184;2023-02-21T02:50:58;99568.47;;;5.99;100.00
50123;BME280;36021;48.670;6.184;2023-02-21T02:53:26;99564.34;;;6.18;100.00
50123;BME280;36021;48.670;6.184;2023-02-21T02:55:56;99557.78;;;6.19;100.00
50123;BME280;36021;48.670;6.184;2023-02-21T02:58:24;99562.16;;;5.98;100.00
50123;BME280;36021;48.670;6.184;2023-02-21T03:00:59;99553.22;;;5.86;100.00
50123;BME280;36021;48.670;6.184;2023-02-21T03:03:41;99555.34;;;6.01;100.00
50123;BME280;36021;48.670;6.184;2023-02-21T03:08:55;99552.47;;;5.74;100.00
50123;BME280;36021;48.670;6.184;2023-02-21T03:11:23;99551.97;;;5.77;100.00
50123;BME280;36021;48.670;6.184;2023-02-21T03:18:54;99548.84;;;5.68;100.00
50123;BME280;36021;48.670;6.184;2023-02-21T03:21:23;99541.31;;;5.59;100.00
50123;BME280;36021;48.670;6.184;2023-02-21T03:23:50;99544.53;;;5.39;100.00
50123;BME280;36021;48.670;6.184;2023-02-21T03:26:17;99535.84;;;5.42;100.00
50123;BME280;36021;48.670;6.184;2023-02-21T03:28:46;99535.84;;;5.25;100.00
50123;BME280;36021;48.670;6.184;2023-02-21T03:31:15;99541.72;;;5.34;100.00
50123;BME280;36021;48.670;6.184;2023-02-21T03:33:42;99535.34;;;5.45;100.00
50123;BME280;36021;48.670;6.184;2023-02-21T03:36:07;99541.97;;;5.33;100.00
50123;BME280;36021;48.670;6.184;2023-02-21T03:38:34;99545.94;;;5.25;100.00
50123;BME280;36021;48.670;6.184;2023-02-21T03:41:00;99541.03;;;5.44;100.00
50123;BME280;36021;48.670;6.184;2023-02-21T03:43:26;99549.41;;;5.37;100.00
50123;BME280;36021;48.670;6.184;2023-02-21T03:45:57;99539.47;;;5.48;100.00
50123;BME280;36021;48.670;6.184;2023-02-21T03:48:25;99546.44;;;5.55;100.00
50123;BME280;36021;48.670;6.184;2023-02-21T03:50:52;99545.28;;;5.68;100.00
50123;BME280;36021;48.670;6.184;2023-02-21T03:53:19;99529.72;;;5.52;100.00
50123;BME280;36021;48.670;6.184;2023-02-21T03:55:46;99533.09;;;5.59;100.00
50123;BME280;36021;48.670;6.184;2023-02-21T03:58:20;99527.69;;;5.64;100.00
50123;BME280;36021;48.670;6.184;2023-02-21T04:00:45;99547.09;;;5.79;100.00
50123;BME280;36021;48.670;6.184;2023-02-21T04:03:12;99541.81;;;5.56;100.00
50123;BME280;36021;48.670;6.184;2023-02-21T04:05:42;99536.66;;;5.26;100.00
50123;BME280;36021;48.670;6.184;2023-02-21T04:08:08;99532.94;;;5.15;100.00
50123;BME280;36021;48.670;6.184;2023-02-21T04:10:34;99535.19;;;5.35;100.00
50123;BME280;36021;48.670;6.184;2023-02-21T04:12:59;99538.81;;;5.41;100.00
50123;BME280;36021;48.670;6.184;2023-02-21T04:15:27;99529.53;;;5.42;100.00
50123;BME280;36021;48.670;6.184;2023-02-21T04:17:54;99537.16;;;5.23;100.00
50123;BME280;36021;48.670;6.184;2023-02-21T04:20:20;99536.84;;;5.19;100.00
50123;BME280;36021;48.670;6.184;2023-02-21T04:22:50;99535.91;;;5.31;100.00
50123;BME280;36021;48.670;6.184;2023-02-21T04:25:16;99530.13;;;5.10;100.00
50123;BME280;36021;48.670;6.184;2023-02-21T04:27:48;99541.22;;;5.04;100.00
50123;BME280;36021;48.670;6.184;2023-02-21T04:30:13;99536.63;;;4.93;100.00
50123;BME280;36021;48.670;6.184;2023-02-21T04:32:39;99546.38;;;4.89;100.00
50123;BME280;36021;48.670;6.184;2023-02-21T04:35:09;99542.59;;;4.90;100.00
50123;BME280;36021;48.670;6.184;2023-02-21T04:37:35;99541.81;;;4.94;100.00
50123;BME280;36021;48.670;6.184;2023-02-21T04:40:01;99543.31;;;4.85;100.00
50123;BME280;36021;48.670;6.184;2023-02-21T04:42:28;99547.28;;;4.94;100.00
50123;BME280;36021;48.670;6.184;2023-02-21T04:44:54;99537.72;;;5.08;100.00
50123;BME280;36021;48.670;6.184;2023-02-21T04:47:19;99538.94;;;5.01;100.00
50123;BME280;36021;48.670;6.184;2023-02-21T04:49:45;99528.97;;;5.06;100.00
50123;BME280;36021;48.670;6.184;2023-02-21T04:52:16;99539.03;;;4.89;100.00
50123;BME280;36021;48.670;6.184;2023-02-21T04:54:45;99528.56;;;4.69;100.00
50123;BME280;36021;48.670;6.184;2023-02-21T04:57:11;99532.78;;;4.77;100.00
50123;BME280;36021;48.670;6.184;2023-02-21T04:59:37;99533.06;;;4.92;100.00
50123;BME280;36021;48.670;6.184;2023-02-21T05:02:02;99526.22;;;5.06;100.00
50123;BME280;36021;48.670;6.184;2023-02-21T05:04:30;99520.28;;;5.09;100.00
50123;BME280;36021;48.670;6.184;2023-02-21T05:06:57;99512.28;;;4.91;100.00
50123;BME280;36021;48.670;6.184;2023-02-21T05:09:22;99521.28;;;4.75;100.00
50123;BME280;36021;48.670;6.184;2023-02-21T05:11:48;99517.84;;;4.51;100.00
50123;BME280;36021;48.670;6.184;2023-02-21T05:14:16;99522.81;;;4.54;100.00
50123;BME280;36021;48.670;6.184;2023-02-21T05:16:43;99523.91;;;4.42;100.00
50123;BME280;36021;48.670;6.184;2023-02-21T05:19:09;99517.69;;;4.58;100.00
50123;BME280;36021;48.670;6.184;2023-02-21T05:21:35;99523.44;;;4.45;100.00
50123;BME280;36021;48.670;6.184;2023-02-21T05:24:07;99521.56;;;4.34;100.00
50123;BME280;36021;48.670;6.184;2023-02-21T05:26:34;99518.13;;;4.38;100.00
50123;BME280;36021;48.670;6.184;2023-02-21T05:29:00;99520.09;;;4.43;100.00
50123;BME280;36021;48.670;6.184;2023-02-21T05:31:27;99513.69;;;4.49;100.00
50123;BME280;36021;48.670;6.184;2023-02-21T05:33:54;99516.22;;;4.67;100.00
50123;BME280;36021;48.670;6.184;2023-02-21T05:36:20;99516.41;;;4.77;100.00
50123;BME280;36021;48.670;6.184;2023-02-21T05:38:49;99523.66;;;4.71;100.00
50123;BME280;36021;48.670;6.184;2023-02-21T05:41:16;99515.78;;;4.58;100.00
50123;BME280;36021;48.670;6.184;2023-02-21T05:43:42;99525.34;;;4.72;100.00
50123;BME280;36021;48.670;6.184;2023-02-21T05:46:14;99511.63;;;4.56;100.00
50123;BME280;36021;48.670;6.184;2023-02-21T05:48:39;99518.22;;;4.43;100.00
50123;BME280;36021;48.670;6.184;2023-02-21T05:51:06;99513.88;;;4.59;100.00
50123;BME280;36021;48.670;6.184;2023-02-21T05:53:31;99514.19;;;4.74;100.00
50123;BME280;36021;48.670;6.184;2023-02-21T05:55:57;99514.06;;;4.69;100.00
50123;BME280;36021;48.670;6.184;2023-02-21T05:58:26;99513.69;;;4.77;100.00
50123;BME280;36021;48.670;6.184;2023-02-21T06:00:52;99520.09;;;4.54;100.00
50123;BME280;36021;48.670;6.184;2023-02-21T06:03:18;99514.84;;;4.53;100.00
50123;BME280;36021;48.670;6.184;2023-02-21T06:05:44;99517.34;;;4.54;100.00
50123;BME280;36021;48.670;6.184;2023-02-21T06:08:09;99520.56;;;4.51;100.00
50123;BME280;36021;48.670;6.184;2023-02-21T06:10:35;99516.03;;;4.29;100.00
50123;BME280;36021;48.670;6.184;2023-02-21T06:13:00;99523.03;;;4.25;100.00
50123;BME280;36021;48.670;6.184;2023-02-21T06:15:26;99513.31;;;4.17;100.00
50123;BME280;36021;48.670;6.184;2023-02-21T06:17:52;99519.47;;;4.24;100.00
50123;BME280;36021;48.670;6.184;2023-02-21T06:20:18;99520.44;;;4.06;100.00
50123;BME280;36021;48.670;6.184;2023-02-21T06:22:43;99523.59;;;4.27;100.00
50123;BME280;36021;48.670;6.184;2023-02-21T06:25:09;99528.78;;;4.40;100.00
50123;BME280;36021;48.670;6.184;2023-02-21T06:27:35;99529.13;;;4.43;100.00
50123;BME280;36021;48.670;6.184;2023-02-21T06:30:01;99521.53;;;4.45;100.00
50123;BME280;36021;48.670;6.184;2023-02-21T06:32:27;99534.53;;;4.55;100.00
50123;BME280;36021;48.670;6.184;2023-02-21T06:34:54;99520.47;;;4.46;100.00
50123;BME280;36021;48.670;6.184;2023-02-21T06:37:19;99526.50;;;4.48;100.00
50123;BME280;36021;48.670;6.184;2023-02-21T06:39:45;99517.94;;;4.16;100.00
50123;BME280;36021;48.670;6.184;2023-02-21T06:42:14;99524.25;;;4.05;100.00
50123;BME280;36021;48.670;6.184;2023-02-21T06:44:46;99523.91;;;3.90;100.00
50123;BME280;36021;48.670;6.184;2023-02-21T06:47:12;99525.69;;;3.96;100.00
50123;BME280;36021;48.670;6.184;2023-02-21T06:49:38;99523.56;;;3.98;100.00
50123;BME280;36021;48.670;6.184;2023-02-21T06:52:04;99515.88;;;3.95;100.00
50123;BME280;36021;48.670;6.184;2023-02-21T06:54:29;99522.25;;;4.01;100.00
50123;BME280;36021;48.670;6.184;2023-02-21T06:56:56;99515.81;;;4.07;100.00
50123;BME280;36021;48.670;6.184;2023-02-21T06:59:22;99525.69;;;3.96;100.00
50123;BME280;36021;48.670;6.184;2023-02-21T07:01:48;99534.09;;;4.06;100.00
50123;BME280;36021;48.670;6.184;2023-02-21T07:04:13;99531.22;;;4.25;100.00
50123;BME280;36021;48.670;6.184;2023-02-21T07:06:40;99526.53;;;4.37;100.00
50123;BME280;36021;48.670;6.184;2023-02-21T07:09:05;99532.41;;;4.29;100.00
50123;BME280;36021;48.670;6.184;2023-02-21T07:11:32;99532.97;;;4.19;100.00
50123;BME280;36021;48.670;6.184;2023-02-21T07:13:58;99535.28;;;4.10;100.00
50123;BME280;36021;48.670;6.184;2023-02-21T07:16:24;99531.47;;;4.11;100.00
50123;BME280;36021;48.670;6.184;2023-02-21T07:18:50;99529.38;;;4.02;100.00
50123;BME280;36021;48.670;6.184;2023-02-21T07:21:16;99535.66;;;4.02;100.00
50123;BME280;36021;48.670;6.184;2023-02-21T07:23:42;99534.47;;;3.98;100.00
50123;BME280;36021;48.670;6.184;2023-02-21T07:26:07;99530.88;;;4.09;100.00
50123;BME280;36021;48.670;6.184;2023-02-21T07:28:33;99534.63;;;4.32;100.00
50123;BME280;36021;48.670;6.184;2023-02-21T07:30:58;99528.34;;;4.31;100.00
50123;BME280;36021;48.670;6.184;2023-02-21T07:33:24;99533.94;;;4.25;100.00
50123;BME280;36021;48.670;6.184;2023-02-21T07:35:49;99525.84;;;4.30;100.00
50123;BME280;36021;48.670;6.184;2023-02-21T07:38:22;99528.47;;;4.25;100.00
50123;BME280;36021;48.670;6.184;2023-02-21T07:40:48;99534.72;;;4.37;100.00
50123;BME280;36021;48.670;6.184;2023-02-21T07:43:14;99540.81;;;4.55;100.00
50123;BME280;36021;48.670;6.184;2023-02-21T07:45:39;99532.97;;;4.59;100.00
50123;BME280;36021;48.670;6.184;2023-02-21T07:48:05;99534.38;;;4.61;100.00
50123;BME280;36021;48.670;6.184;2023-02-21T07:50:31;99535.41;;;4.72;100.00
50123;BME280;36021;48.670;6.184;2023-02-21T07:52:56;99530.16;;;4.82;100.00
50123;BME280;36021;48.670;6.184;2023-02-21T07:55:24;99535.38;;;4.84;100.00
50123;BME280;36021;48.670;6.184;2023-02-21T07:57:50;99544.47;;;4.89;100.00
50123;BME280;36021;48.670;6.184;2023-02-21T08:00:16;99540.91;;;4.89;100.00
50123;BME280;36021;48.670;6.184;2023-02-21T08:02:46;99546.72;;;4.92;100.00
50123;BME280;36021;48.670;6.184;2023-02-21T08:05:13;99547.81;;;5.08;100.00
50123;BME280;36021;48.670;6.184;2023-02-21T08:07:39;99541.31;;;5.25;100.00
50123;BME280;36021;48.670;6.184;2023-02-21T08:10:05;99534.22;;;6.35;100.00
50123;BME280;36021;48.670;6.184;2023-02-21T08:12:30;99527.88;;;8.25;100.00
50123;BME280;36021;48.670;6.184;2023-02-21T08:14:56;99513.16;;;10.48;100.00
50123;BME280;36021;48.670;6.184;2023-02-21T08:17:24;99503.16;;;13.35;100.00
50123;BME280;36021;48.670;6.184;2023-02-21T08:19:49;99499.31;;;15.62;100.00
50123;BME280;36021;48.670;6.184;2023-02-21T08:22:15;99497.31;;;17.12;100.00
50123;BME280;36021;48.670;6.184;2023-02-21T08:24:40;99498.50;;;17.80;100.00
50123;BME280;36021;48.670;6.184;2023-02-21T08:27:06;99498.63;;;19.05;99.20
50123;BME280;36021;48.670;6.184;2023-02-21T08:29:31;99488.59;;;19.99;88.49
50123;BME280;36021;48.670;6.184;2023-02-21T08:31:58;99496.69;;;21.46;77.76
50123;BME280;36021;48.670;6.184;2023-02-21T08:34:25;99503.13;;;21.74;77.55
50123;BME280;36021;48.670;6.184;2023-02-21T08:36:53;99497.69;;;21.94;65.17
50123;BME280;36021;48.670;6.184;2023-02-21T08:39:19;99488.78;;;23.32;58.10
50123;BME280;36021;48.670;6.184;2023-02-21T08:41:45;99479.41;;;23.82;52.56
50123;BME280;36021;48.670;6.184;2023-02-21T08:44:14;99482.78;;;23.34;60.86
50123;BME280;36021;48.670;6.184;2023-02-21T08:46:40;99471.16;;;24.58;53.55
50123;BME280;36021;48.670;6.184;2023-02-21T08:49:06;99477.69;;;25.40;52.51
50123;BME280;36021;48.670;6.184;2023-02-21T08:51:32;99474.44;;;24.82;47.22
50123;BME280;36021;48.670;6.184;2023-02-21T08:53:58;99470.78;;;25.08;50.79
50123;BME280;36021;48.670;6.184;2023-02-21T08:56:26;99473.91;;;25.00;44.97
50123;BME280;36021;48.670;6.184;2023-02-21T08:58:52;99464.69;;;24.31;46.65
50123;BME280;36021;48.670;6.184;2023-02-21T09:01:21;99464.75;;;23.73;50.01
50123;BME280;36021;48.670;6.184;2023-02-21T09:03:48;99465.03;;;24.29;49.38
50123;BME280;36021;48.670;6.184;2023-02-21T09:06:14;99452.88;;;23.83;49.83
50123;BME280;36021;48.670;6.184;2023-02-21T09:08:39;99463.84;;;26.28;53.19
50123;BME280;36021;48.670;6.184;2023-02-21T09:11:05;99453.59;;;26.57;39.97
50123;BME280;36021;48.670;6.184;2023-02-21T09:13:31;99437.44;;;27.84;43.42
50123;BME280;36021;48.670;6.184;2023-02-21T09:15:58;99440.56;;;29.77;39.48
50123;BME280;36021;48.670;6.184;2023-02-21T09:18:24;99427.59;;;30.90;34.24
50123;BME280;36021;48.670;6.184;2023-02-21T09:20:49;99431.03;;;30.16;32.10
50123;BME280;36021;48.670;6.184;2023-02-21T09:23:16;99424.19;;;30.65;34.99
50123;BME280;36021;48.670;6.184;2023-02-21T09:25:43;99417.28;;;32.35;33.51
50123;BME280;36021;48.670;6.184;2023-02-21T09:28:08;99427.00;;;33.34;29.63
50123;BME280;36021;48.670;6.184;2023-02-21T09:30:34;99429.84;;;34.13;30.60
50123;BME280;36021;48.670;6.184;2023-02-21T09:32:59;99420.06;;;34.62;26.45
50123;BME280;36021;48.670;6.184;2023-02-21T09:35:25;99415.03;;;33.78;26.94
50123;BME280;36021;48.670;6.184;2023-02-21T09:37:50;99418.44;;;30.17;30.60
50123;BME280;36021;48.670;6.184;2023-02-21T09:43:00;99406.31;;;23.90;58.65
50123;BME280;36021;48.670;6.184;2023-02-21T09:45:31;99406.13;;;23.79;78.87
50123;BME280;36021;48.670;6.184;2023-02-21T09:47:58;99407.66;;;21.43;82.73
50123;BME280;36021;48.670;6.184;2023-02-21T09:50:26;99404.53;;;19.51;100.00
50123;BME280;36021;48.670;6.184;2023-02-21T09:52:58;99394.16;;;19.51;100.00
50123;BME280;36021;48.670;6.184;2023-02-21T09:55:27;99394.94;;;18.28;100.00
50123;BME280;36021;48.670;6.184;2023-02-21T09:57:54;99398.72;;;18.23;100.00
50123;BME280;36021;48.670;6.184;2023-02-21T10:00:21;99395.72;;;17.99;100.00
50123;BME280;36021;48.670;6.184;2023-02-21T10:08:19;99379.59;;;22.02;95.09
50123;BME280;36021;48.670;6.184;2023-02-21T10:10:54;99376.84;;;24.52;75.96
50123;BME280;36021;48.670;6.184;2023-02-21T10:15:54;99376.94;;;30.23;46.23
50123;BME280;36021;48.670;6.184;2023-02-21T10:20:58;99376.94;;;31.79;42.00
50123;BME280;36021;48.670;6.184;2023-02-21T10:23:34;99367.81;;;32.68;35.25
50123;BME280;36021;48.670;6.184;2023-02-21T10:26:00;99369.22;;;33.23;32.00
50123;BME280;36021;48.670;6.184;2023-02-21T10:28:28;99365.69;;;32.72;32.60
50123;BME280;36021;48.670;6.184;2023-02-21T10:30:56;99360.63;;;31.80;34.16
50123;BME280;36021;48.670;6.184;2023-02-21T10:33:22;99361.78;;;33.84;32.31
50123;BME280;36021;48.670;6.184;2023-02-21T10:35:47;99357.41;;;35.79;31.57
50123;BME280;36021;48.670;6.184;2023-02-21T10:38:15;99344.44;;;34.88;28.91
50123;BME280;36021;48.670;6.184;2023-02-21T10:40:44;99346.81;;;36.77;28.42
50123;BME280;36021;48.670;6.184;2023-02-21T10:43:21;99347.63;;;37.86;27.97
50123;BME280;36021;48.670;6.184;2023-02-21T10:45:52;99343.94;;;36.52;26.63
50123;BME280;36021;48.670;6.184;2023-02-21T10:48:20;99344.72;;;37.77;25.57
50123;BME280;36021;48.670;6.184;2023-02-21T10:50:50;99345.28;;;38.25;24.99
50123;BME280;36021;48.670;6.184;2023-02-21T10:58:34;99339.44;;;38.06;24.62
50123;BME280;36021;48.670;6.184;2023-02-21T11:01:11;99326.22;;;39.40;24.18
50123;BME280;36021;48.670;6.184;2023-02-21T11:03:41;99322.16;;;36.42;25.06
50123;BME280;36021;48.670;6.184;2023-02-21T11:06:07;99313.56;;;37.54;24.55
50123;BME280;36021;48.670;6.184;2023-02-21T11:08:34;99314.69;;;37.87;25.10
50123;BME280;36021;48.670;6.184;2023-02-21T11:11:01;99309.25;;;40.26;24.25
50123;BME280;36021;48.670;6.184;2023-02-21T11:13:27;99307.47;;;37.09;23.89
50123;BME280;36021;48.670;6.184;2023-02-21T11:16:06;99295.91;;;35.26;26.67
50123;BME280;36021;48.670;6.184;2023-02-21T11:18:35;99299.88;;;36.80;26.70
50123;BME280;36021;48.670;6.184;2023-02-21T11:21:09;99293.13;;;37.61;24.17
50123;BME280;36021;48.670;6.184;2023-02-21T11:23:35;99284.66;;;37.58;25.74
50123;BME280;36021;48.670;6.184;2023-02-21T11:26:08;99279.56;;;38.41;23.77
50123;BME280;36021;48.670;6.184;2023-02-21T11:28:36;99273.63;;;36.91;22.87
50123;BME280;36021;48.670;6.184;2023-02-21T11:33:49;99260.69;;;38.77;22.83
50123;BME280;36021;48.670;6.184;2023-02-21T11:36:19;99257.81;;;37.91;22.78
50123;BME280;36021;48.670;6.184;2023-02-21T11:41:46;99252.97;;;36.83;23.31
50123;BME280;36021;48.670;6.184;2023-02-21T11:46:46;99238.22;;;37.86;22.00
50123;BME280;36021;48.670;6.184;2023-02-21T11:49:19;99229.31;;;36.32;22.87
50123;BME280;36021;48.670;6.184;2023-02-21T11:54:42;99224.75;;;38.32;22.24
50123;BME280;36021;48.670;6.184;2023-02-21T11:59:45;99218.41;;;37.88;19.79
50123;BME280;36021;48.670;6.184;2023-02-21T12:02:23;99220.31;;;38.40;20.09
50123;BME280;36021;48.670;6.184;2023-02-21T12:07:41;99199.59;;;36.82;20.09
50123;BME280;36021;48.670;6.184;2023-02-21T12:17:54;99175.81;;;36.82;19.81
50123;BME280;36021;48.670;6.184;2023-02-21T12:23:11;99183.03;;;31.79;23.17
50123;BME280;36021;48.670;6.184;2023-02-21T12:28:20;99174.88;;;33.23;24.64
50123;BME280;36021;48.670;6.184;2023-02-21T12:30:55;99166.97;;;32.75;25.31
50123;BME280;36021;48.670;6.184;2023-02-21T12:33:26;99156.97;;;32.00;26.19
50123;BME280;36021;48.670;6.184;2023-02-21T12:43:26;99149.72;;;30.66;28.03
50123;BME280;36021;48.670;6.184;2023-02-21T12:48:41;99151.53;;;28.29;26.87
50123;BME280;36021;48.670;6.184;2023-02-21T12:51:10;99144.25;;;29.11;28.49
50123;BME280;36021;48.670;6.184;2023-02-21T12:53:42;99132.06;;;28.38;28.22
50123;BME280;36021;48.670;6.184;2023-02-21T12:56:15;99133.44;;;27.59;29.11
50123;BME280;36021;48.670;6.184;2023-02-21T12:58:45;99126.88;;;28.22;30.04
50123;BME280;36021;48.670;6.184;2023-02-21T13:01:17;99124.88;;;28.12;28.21
50123;BME280;36021;48.670;6.184;2023-02-21T13:06:21;99118.47;;;27.41;27.73
50123;BME280;36021;48.670;6.184;2023-02-21T13:11:45;99099.03;;;27.08;31.09
50123;BME280;36021;48.670;6.184;2023-02-21T13:14:17;99105.94;;;26.03;32.65
50123;BME280;36021;48.670;6.184;2023-02-21T13:16:45;99102.50;;;26.41;31.56
50123;BME280;36021;48.670;6.184;2023-02-21T13:19:12;99093.78;;;27.34;31.08
50123;BME280;36021;48.670;6.184;2023-02-21T13:29:43;99076.81;;;27.38;30.11
50123;BME280;36021;48.670;6.184;2023-02-21T13:32:11;99073.56;;;27.15;29.32
50123;BME280;36021;48.670;6.184;2023-02-21T13:34:38;99078.03;;;25.36;28.18
50123;BME280;36021;48.670;6.184;2023-02-21T13:37:06;99065.00;;;26.58;29.23
50123;BME280;36021;48.670;6.184;2023-02-21T13:39:32;99067.91;;;27.22;30.79
50123;BME280;36021;48.670;6.184;2023-02-21T13:42:09;99056.59;;;27.25;29.20
50123;BME280;36021;48.670;6.184;2023-02-21T13:44:39;99047.84;;;28.31;29.38
50123;BME280;36021;48.670;6.184;2023-02-21T13:47:27;99052.31;;;28.29;29.05
50123;BME280;36021;48.670;6.184;2023-02-21T13:49:55;99048.09;;;27.01;28.09
50123;BME280;36021;48.670;6.184;2023-02-21T13:52:26;99042.59;;;25.35;27.29
50123;BME280;36021;48.670;6.184;2023-02-21T13:57:45;99036.09;;;25.96;29.53
50123;BME280;36021;48.670;6.184;2023-02-21T14:02:56;99030.03;;;25.90;30.49
50123;BME280;36021;48.670;6.184;2023-02-21T14:05:22;99021.03;;;25.67;35.71
50123;BME280;36021;48.670;6.184;2023-02-21T14:07:57;99013.22;;;26.22;32.43
50123;BME280;36021;48.670;6.184;2023-02-21T14:12:53;99007.13;;;25.41;32.12
50123;BME280;36021;48.670;6.184;2023-02-21T14:15:19;99009.03;;;24.35;32.00
50123;BME280;36021;48.670;6.184;2023-02-21T14:17:46;99004.25;;;24.06;32.04
50123;BME280;36021;48.670;6.184;2023-02-21T14:20:15;99001.84;;;25.29;34.02
50123;BME280;36021;48.670;6.184;2023-02-21T14:22:41;98999.22;;;25.64;32.08
50123;BME280;36021;48.670;6.184;2023-02-21T14:25:18;98994.47;;;25.82;32.13
50123;BME280;36021;48.670;6.184;2023-02-21T14:27:45;98997.44;;;25.38;33.10
50123;BME280;36021;48.670;6.184;2023-02-21T14:50:28;98972.63;;;25.65;33.04
50123;BME280;36021;48.670;6.184;2023-02-21T15:05:30;98969.72;;;24.90;31.94
50123;BME280;36021;48.670;6.184;2023-02-21T15:10:27;98974.38;;;24.75;32.57
50123;BME280;36021;48.670;6.184;2023-02-21T15:15:23;98962.34;;;24.81;32.83
50123;BME280;36021;48.670;6.184;2023-02-21T15:17:57;98969.19;;;24.33;33.55
50123;BME280;36021;48.670;6.184;2023-02-21T15:20:23;98966.94;;;23.79;33.82
50123;BME280;36021;48.670;6.184;2023-02-21T15:22:59;98966.44;;;23.40;34.11
50123;BME280;36021;48.670;6.184;2023-02-21T15:25:25;98971.22;;;23.10;34.91
50123;BME280;36021;48.670;6.184;2023-02-21T15:27:52;98978.84;;;22.60;35.43
50123;BME280;36021;48.670;6.184;2023-02-21T15:30:32;98974.81;;;22.16;35.89
50123;BME280;36021;48.670;6.184;2023-02-21T15:35:27;98971.22;;;21.58;40.34
50123;BME280;36021;48.670;6.184;2023-02-21T15:37:54;98972.97;;;21.27;42.47
50123;BME280;36021;48.670;6.184;2023-02-21T15:40:22;98968.84;;;21.06;41.04
50123;BME280;36021;48.670;6.184;2023-02-21T15:42:49;98967.19;;;20.86;42.41
50123;BME280;36021;48.670;6.184;2023-02-21T15:45:17;98965.97;;;20.67;43.09
50123;BME280;36021;48.670;6.184;2023-02-21T15:47:44;98968.31;;;20.50;44.79